Dundee, Michigan
Current Conditions -  °F | °C
As of 8:34 AM on Thursday 23 Oct 2014 (Local Time) from KTTF Reporting Station
Haze Haze  
Wind Chill: 34°   Ceiling: Unl
Heat Index: 34°   Visibility: 4mi
Dew Point: 34°   Wind: 3mph
Humidity: 100%   Direction: 290°WNW
Pressure: 30.23"   Gusts: NA
Location:  41.96°N, 83.66°W
Report Text: KTTF 231234Z AUTO 29003KT 4SM BR CLR 01/01 A3023 RMK AO2
Loading
Personal Weather Stations






























Interactive Weather Map New forecast layout! Learn more

10-Day Weather Forecast

Advertisements
Track Severe Weather on mobile